EZY67VC EDDB-EPKK
Flight info
| Callsign | EZY67VC |
|---|---|
| Flight time | 0h 37m |
| Altitude | 35000 |
| Route | ARSAP4N ARSAP DCT OLUMA DCT KULUV DCT NUDRO DCT MOFKE |
| Aircraft | A321/M-SDE3FGHIRWY/LB1 |
Departure
| Time | 2026-05-07 19:15 |
|---|---|
| Airport | Berlin Brandenburg Airport (EDDB) |
Arrival
| Time | 2026-05-07 19:52 |
|---|---|
| Airport | Kraków John Paul II International Airport (EPKK) |
| Time | Latitude | Longitude | Altitude | Speed | Heading |
|---|---|---|---|---|---|
| 2026-05-07 18:53 | 52.36173 | 13.50736 | 159 ft | 0 kts | 69° |
| 2026-05-07 18:58 | 52.36165 | 13.50698 | 159 ft | 4 kts | 72° |
| 2026-05-07 18:58 | 52.36157 | 13.50656 | 159 ft | 4 kts | 79° |
| 2026-05-07 18:58 | 52.36155 | 13.50613 | 159 ft | 4 kts | 100° |
| 2026-05-07 18:59 | 52.36164 | 13.50581 | 159 ft | 2 kts | 157° |
| 2026-05-07 18:59 | 52.36166 | 13.50579 | 159 ft | 0 kts | 159° |
| 2026-05-07 19:02 | 52.36166 | 13.50580 | 159 ft | 0 kts | 159° |
| 2026-05-07 19:02 | 52.36130 | 13.50602 | 159 ft | 10 kts | 159° |
| 2026-05-07 19:02 | 52.36062 | 13.50646 | 159 ft | 10 kts | 159° |
| 2026-05-07 19:02 | 52.36000 | 13.50685 | 158 ft | 8 kts | 160° |
| 2026-05-07 19:03 | 52.35978 | 13.50697 | 158 ft | 0 kts | 160° |
| 2026-05-07 19:03 | 52.35963 | 13.50706 | 158 ft | 6 kts | 161° |
| 2026-05-07 19:03 | 52.35909 | 13.50710 | 158 ft | 6 kts | 195° |
| 2026-05-07 19:03 | 52.35908 | 13.50707 | 158 ft | 0 kts | 211° |
| 2026-05-07 19:04 | 52.35906 | 13.50705 | 158 ft | 0 kts | 211° |
| 2026-05-07 19:04 | 52.35905 | 13.50705 | 158 ft | 0 kts | 211° |
| 2026-05-07 19:04 | 52.35904 | 13.50703 | 158 ft | 2 kts | 213° |
| 2026-05-07 19:05 | 52.35898 | 13.50696 | 158 ft | 0 kts | 218° |
| 2026-05-07 19:05 | 52.35895 | 13.50691 | 158 ft | 3 kts | 221° |
| 2026-05-07 19:05 | 52.35883 | 13.50669 | 158 ft | 6 kts | 227° |
| 2026-05-07 19:06 | 52.35847 | 13.50636 | 158 ft | 2 kts | 192° |
| 2026-05-07 19:06 | 52.35761 | 13.50548 | 158 ft | 13 kts | 247° |
| 2026-05-07 19:06 | 52.35723 | 13.50421 | 158 ft | 12 kts | 246° |
| 2026-05-07 19:07 | 52.35698 | 13.50296 | 158 ft | 11 kts | 252° |
| 2026-05-07 19:07 | 52.35670 | 13.50181 | 158 ft | 11 kts | 247° |
| 2026-05-07 19:07 | 52.35642 | 13.50075 | 158 ft | 10 kts | 247° |
| 2026-05-07 19:07 | 52.35615 | 13.49966 | 158 ft | 14 kts | 249° |
| 2026-05-07 19:08 | 52.35571 | 13.49769 | 158 ft | 19 kts | 248° |
| 2026-05-07 19:08 | 52.35526 | 13.49574 | 158 ft | 18 kts | 249° |
| 2026-05-07 19:08 | 52.35482 | 13.49388 | 158 ft | 17 kts | 249° |
| 2026-05-07 19:08 | 52.35439 | 13.49207 | 158 ft | 17 kts | 249° |
| 2026-05-07 19:09 | 52.35399 | 13.49043 | 158 ft | 13 kts | 248° |
| 2026-05-07 19:09 | 52.35367 | 13.48912 | 158 ft | 12 kts | 248° |
| 2026-05-07 19:09 | 52.35337 | 13.48788 | 158 ft | 11 kts | 248° |
| 2026-05-07 19:09 | 52.35314 | 13.48684 | 158 ft | 4 kts | 250° |
| 2026-05-07 19:10 | 52.35310 | 13.48664 | 158 ft | 6 kts | 250° |
| 2026-05-07 19:10 | 52.35279 | 13.48535 | 158 ft | 14 kts | 244° |
| 2026-05-07 19:10 | 52.35235 | 13.48486 | 158 ft | 7 kts | 186° |
| 2026-05-07 19:10 | 52.35209 | 13.48491 | 158 ft | 4 kts | 169° |
| 2026-05-07 19:11 | 52.35160 | 13.48517 | 158 ft | 11 kts | 158° |
| 2026-05-07 19:11 | 52.35123 | 13.48552 | 158 ft | 0 kts | 138° |
| 2026-05-07 19:12 | 52.35113 | 13.48572 | 157 ft | 7 kts | 126° |
| 2026-05-07 19:12 | 52.35096 | 13.48699 | 156 ft | 13 kts | 98° |
| 2026-05-07 19:12 | 52.35079 | 13.48905 | 154 ft | 26 kts | 90° |
| 2026-05-07 19:12 | 52.35104 | 13.49204 | 154 ft | 18 kts | 68° |
| 2026-05-07 19:13 | 52.35117 | 13.49257 | 154 ft | 0 kts | 67° |
| 2026-05-07 19:14 | 52.35140 | 13.49347 | 156 ft | 29 kts | 68° |
| 2026-05-07 19:14 | 52.35306 | 13.50050 | 153 ft | 100 kts | 69° |
| 2026-05-07 19:14 | 52.35624 | 13.51392 | 157 ft | 151 kts | 69° |
| 2026-05-07 19:14 | 52.36036 | 13.53179 | 366 ft | 174 kts | 71° |
| 2026-05-07 19:15 | 52.36230 | 13.55147 | 817 ft | 183 kts | 97° |
| 2026-05-07 19:15 | 52.35577 | 13.56907 | 1394 ft | 190 kts | 137° |
| 2026-05-07 19:15 | 52.34492 | 13.58185 | 1915 ft | 193 kts | 141° |
| 2026-05-07 19:15 | 52.33382 | 13.59517 | 2246 ft | 203 kts | 140° |
| 2026-05-07 19:16 | 52.32250 | 13.60918 | 2716 ft | 203 kts | 137° |
| 2026-05-07 19:16 | 52.31449 | 13.62748 | 3175 ft | 199 kts | 105° |
| 2026-05-07 19:16 | 52.31314 | 13.64979 | 3636 ft | 197 kts | 88° |
| 2026-05-07 19:16 | 52.31463 | 13.67206 | 4041 ft | 201 kts | 76° |
| 2026-05-07 19:17 | 52.31877 | 13.69484 | 4194 ft | 219 kts | 70° |
| 2026-05-07 19:17 | 52.32400 | 13.71860 | 4802 ft | 221 kts | 69° |
| 2026-05-07 19:17 | 52.32837 | 13.74276 | 5419 ft | 226 kts | 79° |
| 2026-05-07 19:17 | 52.32895 | 13.76942 | 5736 ft | 244 kts | 92° |
| 2026-05-07 19:18 | 52.32715 | 13.79825 | 6132 ft | 262 kts | 96° |
| 2026-05-07 19:18 | 52.32447 | 13.82790 | 6883 ft | 268 kts | 99° |
| 2026-05-07 19:18 | 52.32226 | 13.84790 | 7349 ft | 272 kts | 100° |
| 2026-05-07 19:18 | 52.31858 | 13.87837 | 8133 ft | 274 kts | 100° |
| 2026-05-07 19:19 | 52.31514 | 13.90920 | 8922 ft | 277 kts | 99° |
| 2026-05-07 19:19 | 52.31195 | 13.94050 | 9688 ft | 281 kts | 99° |
| 2026-05-07 19:19 | 52.30870 | 13.97236 | 10291 ft | 291 kts | 99° |
| 2026-05-07 19:19 | 52.30515 | 14.00619 | 10478 ft | 314 kts | 99° |
| 2026-05-07 19:20 | 52.30128 | 14.04264 | 10629 ft | 337 kts | 99° |
| 2026-05-07 19:20 | 52.29710 | 14.08143 | 10858 ft | 355 kts | 99° |
| 2026-05-07 19:20 | 52.29275 | 14.12154 | 11423 ft | 361 kts | 100° |
| 2026-05-07 19:20 | 52.28835 | 14.16221 | 12067 ft | 366 kts | 99° |
| 2026-05-07 19:21 | 52.28391 | 14.20337 | 12729 ft | 370 kts | 99° |
| 2026-05-07 19:21 | 52.27943 | 14.24497 | 13408 ft | 374 kts | 99° |
| 2026-05-07 19:21 | 52.27490 | 14.28703 | 14044 ft | 378 kts | 99° |
| 2026-05-07 19:21 | 52.27037 | 14.32896 | 14624 ft | 382 kts | 100° |
| 2026-05-07 19:22 | 52.26573 | 14.37183 | 15207 ft | 385 kts | 100° |
| 2026-05-07 19:22 | 52.26102 | 14.41506 | 15790 ft | 389 kts | 100° |
| 2026-05-07 19:22 | 52.25625 | 14.45867 | 16366 ft | 392 kts | 100° |
| 2026-05-07 19:22 | 52.25139 | 14.50271 | 16935 ft | 395 kts | 100° |
| 2026-05-07 19:23 | 52.24648 | 14.54707 | 17501 ft | 399 kts | 100° |
| 2026-05-07 19:23 | 52.24149 | 14.59174 | 18042 ft | 402 kts | 100° |
| 2026-05-07 19:23 | 52.23646 | 14.63683 | 18556 ft | 405 kts | 100° |
| 2026-05-07 19:23 | 52.23133 | 14.68221 | 19035 ft | 408 kts | 102° |
| 2026-05-07 19:24 | 52.22311 | 14.72652 | 19517 ft | 410 kts | 112° |
| 2026-05-07 19:24 | 52.21069 | 14.76862 | 20010 ft | 412 kts | 117° |
| 2026-05-07 19:24 | 52.19761 | 14.81027 | 20504 ft | 414 kts | 117° |
| 2026-05-07 19:24 | 52.18444 | 14.85221 | 21008 ft | 417 kts | 117° |
| 2026-05-07 19:25 | 52.13743 | 15.00252 | 22718 ft | 425 kts | 117° |
| 2026-05-07 19:25 | 52.11569 | 15.07163 | 23475 ft | 429 kts | 117° |
| 2026-05-07 19:25 | 52.07587 | 15.19765 | 24611 ft | 436 kts | 117° |
| 2026-05-07 19:25 | 52.04528 | 15.29393 | 25427 ft | 441 kts | 118° |
| 2026-05-07 19:26 | 52.00753 | 15.41215 | 26455 ft | 444 kts | 118° |
| 2026-05-07 19:26 | 51.99324 | 15.45676 | 26818 ft | 446 kts | 118° |
| 2026-05-07 19:26 | 51.96545 | 15.54314 | 27484 ft | 450 kts | 118° |
| 2026-05-07 19:26 | 51.94218 | 15.61537 | 28010 ft | 453 kts | 119° |
| 2026-05-07 19:27 | 51.90380 | 15.73410 | 28912 ft | 458 kts | 119° |
| 2026-05-07 19:27 | 51.87046 | 15.81765 | 29808 ft | 453 kts | 128° |
| 2026-05-07 19:27 | 51.84767 | 15.87128 | 30419 ft | 448 kts | 128° |
| 2026-05-07 19:27 | 51.83009 | 15.91285 | 30800 ft | 447 kts | 128° |
| 2026-05-07 19:28 | 51.81231 | 15.95492 | 31157 ft | 447 kts | 128° |
| 2026-05-07 19:28 | 51.79477 | 15.99638 | 31495 ft | 447 kts | 127° |
| 2026-05-07 19:28 | 51.77853 | 16.03924 | 31806 ft | 449 kts | 124° |
| 2026-05-07 19:28 | 51.76316 | 16.08235 | 32135 ft | 449 kts | 123° |
| 2026-05-07 19:29 | 51.74779 | 16.12622 | 32457 ft | 449 kts | 123° |
| 2026-05-07 19:29 | 51.73251 | 16.17018 | 32793 ft | 449 kts | 122° |
| 2026-05-07 19:29 | 51.70473 | 16.25071 | 33381 ft | 449 kts | 123° |
| 2026-05-07 19:29 | 51.66003 | 16.37967 | 34280 ft | 449 kts | 123° |
| 2026-05-07 19:30 | 51.61985 | 16.49409 | 34895 ft | 450 kts | 123° |
| 2026-05-07 19:30 | 51.56931 | 16.63722 | 35021 ft | 465 kts | 123° |
| 2026-05-07 19:30 | 51.53722 | 16.72805 | 35064 ft | 469 kts | 123° |
| 2026-05-07 19:31 | 51.50493 | 16.81907 | 35062 ft | 469 kts | 124° |
| 2026-05-07 19:31 | 51.43921 | 17.00312 | 35058 ft | 469 kts | 124° |
| 2026-05-07 19:32 | 51.33079 | 17.30416 | 34976 ft | 467 kts | 125° |
| 2026-05-07 19:32 | 51.29817 | 17.39382 | 35048 ft | 465 kts | 125° |
| 2026-05-07 19:33 | 51.24520 | 17.53923 | 35015 ft | 459 kts | 126° |
| 2026-05-07 19:33 | 51.20011 | 17.66215 | 35049 ft | 458 kts | 126° |
| 2026-05-07 19:34 | 51.11008 | 17.90528 | 35049 ft | 457 kts | 126° |
| 2026-05-07 19:34 | 51.04746 | 18.07359 | 35027 ft | 456 kts | 126° |
| 2026-05-07 19:35 | 50.99430 | 18.21538 | 35026 ft | 456 kts | 127° |
| 2026-05-07 19:35 | 50.94670 | 18.34164 | 35019 ft | 460 kts | 127° |
| 2026-05-07 19:36 | 50.90543 | 18.45104 | 35006 ft | 450 kts | 127° |
| 2026-05-07 19:36 | 50.88967 | 18.49294 | 35009 ft | 437 kts | 127° |
| 2026-05-07 19:36 | 50.87403 | 18.53426 | 34882 ft | 438 kts | 128° |
| 2026-05-07 19:37 | 50.85819 | 18.57572 | 34087 ft | 442 kts | 128° |
| 2026-05-07 19:37 | 50.84216 | 18.61742 | 33180 ft | 444 kts | 128° |
| 2026-05-07 19:37 | 50.82615 | 18.65909 | 32278 ft | 444 kts | 128° |
| 2026-05-07 19:37 | 50.81042 | 18.70025 | 31367 ft | 429 kts | 128° |
| 2026-05-07 19:38 | 50.79533 | 18.73993 | 30544 ft | 414 kts | 128° |
| 2026-05-07 19:38 | 50.78065 | 18.77835 | 29580 ft | 406 kts | 128° |
| 2026-05-07 19:38 | 50.76589 | 18.81661 | 28664 ft | 409 kts | 128° |
| 2026-05-07 19:38 | 50.75095 | 18.85518 | 27763 ft | 413 kts | 128° |
| 2026-05-07 19:39 | 50.73611 | 18.89366 | 27254 ft | 408 kts | 128° |
| 2026-05-07 19:39 | 50.72142 | 18.93178 | 26633 ft | 405 kts | 127° |
| 2026-05-07 19:39 | 50.70161 | 18.98306 | 25819 ft | 402 kts | 128° |
| 2026-05-07 19:39 | 50.65057 | 19.11426 | 23775 ft | 393 kts | 127° |
| 2026-05-07 19:40 | 50.62791 | 19.17239 | 22829 ft | 388 kts | 127° |
| 2026-05-07 19:40 | 50.61392 | 19.20836 | 22334 ft | 384 kts | 127° |
| 2026-05-07 19:40 | 50.59995 | 19.24412 | 21810 ft | 382 kts | 127° |
| 2026-05-07 19:40 | 50.58211 | 19.28975 | 21167 ft | 380 kts | 127° |
| 2026-05-07 19:41 | 50.53405 | 19.41223 | 19490 ft | 375 kts | 126° |
| 2026-05-07 19:41 | 50.52032 | 19.44708 | 19067 ft | 374 kts | 126° |
| 2026-05-07 19:41 | 50.50662 | 19.48179 | 18631 ft | 373 kts | 126° |
| 2026-05-07 19:41 | 50.49292 | 19.51641 | 18190 ft | 372 kts | 126° |
| 2026-05-07 19:42 | 50.47932 | 19.55081 | 17732 ft | 370 kts | 126° |
| 2026-05-07 19:42 | 50.45715 | 19.60682 | 17020 ft | 368 kts | 126° |
| 2026-05-07 19:42 | 50.40368 | 19.74140 | 15239 ft | 361 kts | 125° |
| 2026-05-07 19:42 | 50.38386 | 19.79102 | 14528 ft | 358 kts | 125° |
| 2026-05-07 19:43 | 50.37072 | 19.82391 | 14165 ft | 353 kts | 125° |
| 2026-05-07 19:43 | 50.35794 | 19.85589 | 14043 ft | 340 kts | 125° |
| 2026-05-07 19:43 | 50.34561 | 19.88672 | 13920 ft | 327 kts | 126° |
| 2026-05-07 19:43 | 50.33398 | 19.91577 | 13427 ft | 313 kts | 126° |
| 2026-05-07 19:44 | 50.32236 | 19.94476 | 12621 ft | 308 kts | 125° |
| 2026-05-07 19:44 | 50.31107 | 19.97293 | 11856 ft | 304 kts | 125° |
| 2026-05-07 19:44 | 50.30003 | 20.00041 | 11109 ft | 300 kts | 125° |
| 2026-05-07 19:44 | 50.28892 | 20.02792 | 10369 ft | 298 kts | 124° |
| 2026-05-07 19:45 | 50.27790 | 20.05516 | 9614 ft | 296 kts | 124° |
| 2026-05-07 19:45 | 50.26694 | 20.08221 | 8826 ft | 293 kts | 124° |
| 2026-05-07 19:45 | 50.25603 | 20.10905 | 8052 ft | 291 kts | 124° |
| 2026-05-07 19:45 | 50.24525 | 20.13563 | 7295 ft | 288 kts | 124° |
| 2026-05-07 19:46 | 50.23372 | 20.16016 | 6918 ft | 268 kts | 142° |
| 2026-05-07 19:46 | 50.21809 | 20.17213 | 6696 ft | 244 kts | 176° |
| 2026-05-07 19:46 | 50.20195 | 20.16868 | 6511 ft | 234 kts | 208° |
| 2026-05-07 19:46 | 50.18817 | 20.15541 | 6140 ft | 233 kts | 215° |
| 2026-05-07 19:47 | 50.17435 | 20.14203 | 5763 ft | 233 kts | 214° |
| 2026-05-07 19:47 | 50.16051 | 20.12899 | 5421 ft | 231 kts | 214° |
| 2026-05-07 19:47 | 50.14689 | 20.11626 | 5096 ft | 226 kts | 214° |
| 2026-05-07 19:47 | 50.13358 | 20.10367 | 4799 ft | 221 kts | 217° |
| 2026-05-07 19:48 | 50.12275 | 20.08744 | 4485 ft | 214 kts | 238° |
| 2026-05-07 19:48 | 50.11667 | 20.06691 | 4206 ft | 206 kts | 258° |
| 2026-05-07 19:48 | 50.11371 | 20.04525 | 3938 ft | 204 kts | 259° |
| 2026-05-07 19:48 | 50.11076 | 20.02363 | 3667 ft | 204 kts | 259° |
| 2026-05-07 19:49 | 50.10781 | 20.00208 | 3406 ft | 204 kts | 259° |
| 2026-05-07 19:49 | 50.10490 | 19.98084 | 3146 ft | 193 kts | 259° |
| 2026-05-07 19:49 | 50.10219 | 19.96125 | 2890 ft | 178 kts | 259° |
| 2026-05-07 19:49 | 50.09965 | 19.94302 | 2673 ft | 166 kts | 259° |
| 2026-05-07 19:50 | 50.09730 | 19.92612 | 2452 ft | 156 kts | 260° |
| 2026-05-07 19:50 | 50.09501 | 19.90976 | 2237 ft | 153 kts | 259° |
| 2026-05-07 19:50 | 50.09275 | 19.89366 | 2033 ft | 151 kts | 258° |
| 2026-05-07 19:50 | 50.09047 | 19.87769 | 1823 ft | 150 kts | 257° |
| 2026-05-07 19:51 | 50.08819 | 19.86192 | 1641 ft | 148 kts | 257° |
| 2026-05-07 19:51 | 50.08602 | 19.84631 | 1449 ft | 146 kts | 259° |
| 2026-05-07 19:51 | 50.08405 | 19.83060 | 1212 ft | 148 kts | 260° |
| 2026-05-07 19:51 | 50.08180 | 19.81513 | 1021 ft | 149 kts | 260° |
| 2026-05-07 19:52 | 50.07970 | 19.79941 | 845 ft | 148 kts | 261° |
| 2026-05-07 19:52 | 50.07763 | 19.78430 | 803 ft | 128 kts | 259° |
| 2026-05-07 19:52 | 50.07623 | 19.77380 | 800 ft | 73 kts | 257° |
| 2026-05-07 19:52 | 50.07552 | 19.76915 | 802 ft | 28 kts | 245° |
| 2026-05-07 19:53 | 50.07400 | 19.76868 | 800 ft | 20 kts | 169° |
| 2026-05-07 19:53 | 50.07309 | 19.76959 | 800 ft | 11 kts | 101° |
| 2026-05-07 19:53 | 50.07310 | 19.76988 | 800 ft | 0 kts | 84° |
| 2026-05-07 19:53 | 50.07330 | 19.77126 | 800 ft | 26 kts | 76° |
| 2026-05-07 19:54 | 50.07374 | 19.77441 | 800 ft | 30 kts | 78° |
| 2026-05-07 19:54 | 50.07417 | 19.77750 | 800 ft | 28 kts | 77° |
| 2026-05-07 19:54 | 50.07459 | 19.78049 | 800 ft | 28 kts | 78° |
| 2026-05-07 19:54 | 50.07500 | 19.78343 | 800 ft | 28 kts | 78° |
| 2026-05-07 19:55 | 50.07540 | 19.78632 | 800 ft | 27 kts | 77° |
| 2026-05-07 19:55 | 50.07581 | 19.78916 | 800 ft | 27 kts | 77° |
| 2026-05-07 19:55 | 50.07618 | 19.79195 | 800 ft | 26 kts | 78° |
| 2026-05-07 19:55 | 50.07657 | 19.79470 | 800 ft | 26 kts | 77° |
| 2026-05-07 19:56 | 50.07691 | 19.79712 | 800 ft | 18 kts | 77° |
| 2026-05-07 19:56 | 50.07685 | 19.79864 | 800 ft | 10 kts | 139° |
| 2026-05-07 19:56 | 50.07621 | 19.79896 | 800 ft | 10 kts | 168° |
| 2026-05-07 19:56 | 50.07541 | 19.79923 | 800 ft | 9 kts | 164° |
| 2026-05-07 19:57 | 50.07515 | 19.79984 | 800 ft | 2 kts | 96° |
| 2026-05-07 19:57 | 50.07515 | 19.79998 | 800 ft | 6 kts | 91° |
| 2026-05-07 19:57 | 50.07505 | 19.80059 | 800 ft | 5 kts | 157° |
| 2026-05-07 19:57 | 50.07475 | 19.80077 | 800 ft | 4 kts | 164° |
| 2026-05-07 19:58 | 50.07474 | 19.80078 | 800 ft | 0 kts | 164° |